sensor_id;sensor_type;location;lat;lon;timestamp;P1;durP1;ratioP1;P2;durP2;ratioP2
10731;SDS011;74907;42.812;23.216;2024-03-23T00:51:08;10.57;;;8.60;;
10731;SDS011;74907;42.812;23.216;2024-03-23T00:56:02;13.27;;;9.67;;
10731;SDS011;74907;42.812;23.216;2024-03-23T00:58:28;11.23;;;10.03;;
10731;SDS011;74907;42.812;23.216;2024-03-23T01:00:55;12.80;;;10.17;;
10731;SDS011;74907;42.812;23.216;2024-03-23T01:03:20;14.60;;;9.73;;
10731;SDS011;74907;42.812;23.216;2024-03-23T01:05:47;11.50;;;10.30;;
10731;SDS011;74907;42.812;23.216;2024-03-23T01:08:15;10.47;;;9.03;;
10731;SDS011;74907;42.812;23.216;2024-03-23T01:10:41;10.80;;;8.43;;
10731;SDS011;74907;42.812;23.216;2024-03-23T01:13:07;13.83;;;9.87;;
10731;SDS011;74907;42.812;23.216;2024-03-23T01:15:34;11.80;;;8.97;;
10731;SDS011;74907;42.812;23.216;2024-03-23T01:17:59;16.17;;;9.80;;
10731;SDS011;74907;42.812;23.216;2024-03-23T01:20:27;11.50;;;9.30;;
10731;SDS011;74907;42.812;23.216;2024-03-23T01:22:52;12.03;;;9.47;;
10731;SDS011;74907;42.812;23.216;2024-03-23T01:25:20;12.40;;;9.83;;
10731;SDS011;74907;42.812;23.216;2024-03-23T01:27:46;12.33;;;10.90;;
10731;SDS011;74907;42.812;23.216;2024-03-23T01:30:13;13.30;;;10.33;;
10731;SDS011;74907;42.812;23.216;2024-03-23T01:32:39;12.93;;;10.70;;
10731;SDS011;74907;42.812;23.216;2024-03-23T01:35:06;11.20;;;9.83;;
10731;SDS011;74907;42.812;23.216;2024-03-23T01:37:32;10.87;;;8.80;;
10731;SDS011;74907;42.812;23.216;2024-03-23T01:39:58;11.93;;;8.33;;
10731;SDS011;74907;42.812;23.216;2024-03-23T01:42:25;7.97;;;7.17;;
10731;SDS011;74907;42.812;23.216;2024-03-23T01:44:52;6.90;;;6.20;;
10731;SDS011;74907;42.812;23.216;2024-03-23T01:47:18;7.10;;;6.47;;
10731;SDS011;74907;42.812;23.216;2024-03-23T01:49:45;7.80;;;6.20;;
10731;SDS011;74907;42.812;23.216;2024-03-23T01:52:11;7.13;;;6.00;;
10731;SDS011;74907;42.812;23.216;2024-03-23T01:54:37;6.97;;;6.17;;
10731;SDS011;74907;42.812;23.216;2024-03-23T01:57:04;8.30;;;6.63;;
10731;SDS011;74907;42.812;23.216;2024-03-23T01:59:32;6.60;;;6.00;;
10731;SDS011;74907;42.812;23.216;2024-03-23T02:01:58;8.47;;;6.30;;
10731;SDS011;74907;42.812;23.216;2024-03-23T02:04:25;7.70;;;6.53;;
10731;SDS011;74907;42.812;23.216;2024-03-23T02:06:51;7.63;;;6.23;;
10731;SDS011;74907;42.812;23.216;2024-03-23T02:09:18;8.80;;;6.13;;
10731;SDS011;74907;42.812;23.216;2024-03-23T02:11:43;8.10;;;6.20;;
10731;SDS011;74907;42.812;23.216;2024-03-23T02:14:10;10.90;;;7.30;;
10731;SDS011;74907;42.812;23.216;2024-03-23T02:16:37;9.53;;;6.30;;
10731;SDS011;74907;42.812;23.216;2024-03-23T02:19:04;7.47;;;6.57;;
10731;SDS011;74907;42.812;23.216;2024-03-23T02:21:29;8.33;;;6.93;;
10731;SDS011;74907;42.812;23.216;2024-03-23T02:23:59;8.13;;;7.00;;
10731;SDS011;74907;42.812;23.216;2024-03-23T02:26:24;7.47;;;6.60;;
10731;SDS011;74907;42.812;23.216;2024-03-23T02:28:51;7.43;;;6.77;;
10731;SDS011;74907;42.812;23.216;2024-03-23T02:31:17;8.47;;;7.63;;
10731;SDS011;74907;42.812;23.216;2024-03-23T02:33:44;14.47;;;8.97;;
10731;SDS011;74907;42.812;23.216;2024-03-23T02:36:09;10.23;;;8.83;;
10731;SDS011;74907;42.812;23.216;2024-03-23T02:38:36;13.77;;;9.07;;
10731;SDS011;74907;42.812;23.216;2024-03-23T02:41:04;10.67;;;7.83;;
10731;SDS011;74907;42.812;23.216;2024-03-23T02:43:30;9.70;;;8.70;;
10731;SDS011;74907;42.812;23.216;2024-03-23T02:45:56;11.03;;;7.53;;
10731;SDS011;74907;42.812;23.216;2024-03-23T02:48:23;8.13;;;7.33;;
10731;SDS011;74907;42.812;23.216;2024-03-23T02:50:50;8.83;;;7.80;;
10731;SDS011;74907;42.812;23.216;2024-03-23T02:53:15;10.07;;;7.73;;
10731;SDS011;74907;42.812;23.216;2024-03-23T02:55:42;8.10;;;7.30;;
10731;SDS011;74907;42.812;23.216;2024-03-23T02:58:09;8.80;;;7.90;;
10731;SDS011;74907;42.812;23.216;2024-03-23T03:00:36;8.30;;;7.50;;
10731;SDS011;74907;42.812;23.216;2024-03-23T03:03:02;10.30;;;7.50;;
10731;SDS011;74907;42.812;23.216;2024-03-23T03:05:29;8.87;;;7.97;;
10731;SDS011;74907;42.812;23.216;2024-03-23T03:07:55;9.87;;;8.40;;
10731;SDS011;74907;42.812;23.216;2024-03-23T03:10:21;14.30;;;8.73;;
10731;SDS011;74907;42.812;23.216;2024-03-23T03:12:47;13.77;;;8.07;;
10731;SDS011;74907;42.812;23.216;2024-03-23T03:15:15;9.70;;;8.07;;
10731;SDS011;74907;42.812;23.216;2024-03-23T03:17:41;12.40;;;7.97;;
10731;SDS011;74907;42.812;23.216;2024-03-23T03:20:08;8.93;;;7.73;;
10731;SDS011;74907;42.812;23.216;2024-03-23T03:22:38;10.37;;;8.07;;
10731;SDS011;74907;42.812;23.216;2024-03-23T03:25:05;8.47;;;7.50;;
10731;SDS011;74907;42.812;23.216;2024-03-23T03:27:32;9.93;;;7.40;;
10731;SDS011;74907;42.812;23.216;2024-03-23T03:29:59;9.13;;;7.80;;
10731;SDS011;74907;42.812;23.216;2024-03-23T03:32:27;10.50;;;7.93;;
10731;SDS011;74907;42.812;23.216;2024-03-23T03:34:55;11.27;;;8.83;;
10731;SDS011;74907;42.812;23.216;2024-03-23T03:37:21;11.97;;;9.10;;
10731;SDS011;74907;42.812;23.216;2024-03-23T03:39:47;11.67;;;10.47;;
10731;SDS011;74907;42.812;23.216;2024-03-23T03:42:13;9.00;;;7.83;;
10731;SDS011;74907;42.812;23.216;2024-03-23T03:44:40;9.93;;;8.43;;
10731;SDS011;74907;42.812;23.216;2024-03-23T03:47:06;7.80;;;7.00;;
10731;SDS011;74907;42.812;23.216;2024-03-23T03:49:34;11.13;;;7.37;;
10731;SDS011;74907;42.812;23.216;2024-03-23T03:52:00;6.77;;;6.17;;
10731;SDS011;74907;42.812;23.216;2024-03-23T03:54:27;9.03;;;6.53;;
10731;SDS011;74907;42.812;23.216;2024-03-23T03:56:53;6.77;;;6.07;;
10731;SDS011;74907;42.812;23.216;2024-03-23T03:59:19;7.40;;;6.70;;
10731;SDS011;74907;42.812;23.216;2024-03-23T04:01:45;8.00;;;6.53;;
10731;SDS011;74907;42.812;23.216;2024-03-23T04:04:12;7.73;;;6.93;;
10731;SDS011;74907;42.812;23.216;2024-03-23T04:06:40;7.07;;;6.33;;
10731;SDS011;74907;42.812;23.216;2024-03-23T04:09:07;6.97;;;5.93;;
10731;SDS011;74907;42.812;23.216;2024-03-23T04:11:32;7.47;;;6.73;;
10731;SDS011;74907;42.812;23.216;2024-03-23T04:13:59;10.30;;;7.43;;
10731;SDS011;74907;42.812;23.216;2024-03-23T04:16:26;9.07;;;7.20;;
10731;SDS011;74907;42.812;23.216;2024-03-23T04:18:53;8.50;;;7.60;;
10731;SDS011;74907;42.812;23.216;2024-03-23T04:21:19;8.47;;;7.60;;
10731;SDS011;74907;42.812;23.216;2024-03-23T04:23:47;10.20;;;6.70;;
10731;SDS011;74907;42.812;23.216;2024-03-23T04:26:14;12.60;;;7.13;;
10731;SDS011;74907;42.812;23.216;2024-03-23T04:28:41;9.23;;;6.73;;
10731;SDS011;74907;42.812;23.216;2024-03-23T04:31:08;10.87;;;7.13;;
10731;SDS011;74907;42.812;23.216;2024-03-23T04:33:35;9.33;;;7.07;;
10731;SDS011;74907;42.812;23.216;2024-03-23T04:36:00;9.67;;;7.27;;
10731;SDS011;74907;42.812;23.216;2024-03-23T04:38:27;8.67;;;7.10;;
10731;SDS011;74907;42.812;23.216;2024-03-23T04:40:56;9.37;;;7.43;;
10731;SDS011;74907;42.812;23.216;2024-03-23T04:43:23;11.57;;;9.13;;
10731;SDS011;74907;42.812;23.216;2024-03-23T04:45:49;10.10;;;9.00;;
10731;SDS011;74907;42.812;23.216;2024-03-23T04:48:16;10.20;;;9.20;;
10731;SDS011;74907;42.812;23.216;2024-03-23T04:50:44;10.73;;;7.77;;
10731;SDS011;74907;42.812;23.216;2024-03-23T04:53:10;11.80;;;7.47;;
10731;SDS011;74907;42.812;23.216;2024-03-23T04:55:37;9.33;;;8.20;;
10731;SDS011;74907;42.812;23.216;2024-03-23T04:58:05;11.97;;;9.37;;
10731;SDS011;74907;42.812;23.216;2024-03-23T05:00:31;12.63;;;9.90;;
10731;SDS011;74907;42.812;23.216;2024-03-23T05:02:57;15.30;;;10.20;;
10731;SDS011;74907;42.812;23.216;2024-03-23T05:05:23;11.13;;;8.70;;
10731;SDS011;74907;42.812;23.216;2024-03-23T05:07:50;12.67;;;9.00;;
10731;SDS011;74907;42.812;23.216;2024-03-23T05:10:15;10.23;;;8.97;;
10731;SDS011;74907;42.812;23.216;2024-03-23T05:12:42;13.33;;;10.63;;
10731;SDS011;74907;42.812;23.216;2024-03-23T05:15:11;10.87;;;9.70;;
10731;SDS011;74907;42.812;23.216;2024-03-23T05:17:38;12.77;;;9.90;;
10731;SDS011;74907;42.812;23.216;2024-03-23T05:20:05;11.10;;;9.83;;
10731;SDS011;74907;42.812;23.216;2024-03-23T05:22:34;13.70;;;10.90;;
10731;SDS011;74907;42.812;23.216;2024-03-23T05:25:01;12.10;;;10.07;;
10731;SDS011;74907;42.812;23.216;2024-03-23T05:27:29;9.23;;;8.33;;
10731;SDS011;74907;42.812;23.216;2024-03-23T05:29:57;9.17;;;8.33;;
10731;SDS011;74907;42.812;23.216;2024-03-23T05:32:25;10.67;;;8.50;;
10731;SDS011;74907;42.812;23.216;2024-03-23T05:34:51;10.70;;;9.20;;
10731;SDS011;74907;42.812;23.216;2024-03-23T05:37:21;10.57;;;9.20;;
10731;SDS011;74907;42.812;23.216;2024-03-23T05:39:48;10.53;;;9.43;;
10731;SDS011;74907;42.812;23.216;2024-03-23T05:42:15;13.63;;;10.23;;
10731;SDS011;74907;42.812;23.216;2024-03-23T05:44:43;14.53;;;11.17;;
10731;SDS011;74907;42.812;23.216;2024-03-23T05:47:09;14.80;;;12.63;;
10731;SDS011;74907;42.812;23.216;2024-03-23T05:49:37;17.83;;;12.63;;
10731;SDS011;74907;42.812;23.216;2024-03-23T05:52:03;14.13;;;12.10;;
10731;SDS011;74907;42.812;23.216;2024-03-23T05:54:30;20.53;;;15.50;;
10731;SDS011;74907;42.812;23.216;2024-03-23T05:56:55;20.87;;;18.50;;
10731;SDS011;74907;42.812;23.216;2024-03-23T05:59:22;18.93;;;16.27;;
10731;SDS011;74907;42.812;23.216;2024-03-23T06:01:48;19.47;;;15.80;;
10731;SDS011;74907;42.812;23.216;2024-03-23T06:04:15;17.97;;;15.70;;
10731;SDS011;74907;42.812;23.216;2024-03-23T06:06:42;17.83;;;13.73;;
10731;SDS011;74907;42.812;23.216;2024-03-23T06:09:09;16.37;;;12.07;;
10731;SDS011;74907;42.812;23.216;2024-03-23T06:11:34;12.60;;;11.30;;
10731;SDS011;74907;42.812;23.216;2024-03-23T06:14:01;13.20;;;11.57;;
10731;SDS011;74907;42.812;23.216;2024-03-23T06:16:27;11.37;;;10.17;;
10731;SDS011;74907;42.812;23.216;2024-03-23T06:18:55;11.07;;;9.97;;
10731;SDS011;74907;42.812;23.216;2024-03-23T06:21:21;11.67;;;10.47;;
10731;SDS011;74907;42.812;23.216;2024-03-23T06:23:54;14.67;;;11.60;;
10731;SDS011;74907;42.812;23.216;2024-03-23T06:26:20;12.47;;;10.73;;
10731;SDS011;74907;42.812;23.216;2024-03-23T06:28:47;14.17;;;10.63;;
10731;SDS011;74907;42.812;23.216;2024-03-23T06:31:13;16.63;;;13.27;;
10731;SDS011;74907;42.812;23.216;2024-03-23T06:33:39;11.83;;;10.63;;
10731;SDS011;74907;42.812;23.216;2024-03-23T06:36:07;14.30;;;10.63;;
10731;SDS011;74907;42.812;23.216;2024-03-23T06:38:35;11.23;;;10.07;;
10731;SDS011;74907;42.812;23.216;2024-03-23T06:41:03;11.70;;;10.30;;
10731;SDS011;74907;42.812;23.216;2024-03-23T06:43:30;21.53;;;13.27;;
10731;SDS011;74907;42.812;23.216;2024-03-23T06:45:56;12.80;;;10.07;;
10731;SDS011;74907;42.812;23.216;2024-03-23T06:48:23;10.43;;;9.37;;
10731;SDS011;74907;42.812;23.216;2024-03-23T06:50:49;10.90;;;9.83;;
10731;SDS011;74907;42.812;23.216;2024-03-23T06:53:16;10.70;;;9.43;;
10731;SDS011;74907;42.812;23.216;2024-03-23T06:55:43;10.53;;;9.47;;
10731;SDS011;74907;42.812;23.216;2024-03-23T06:58:18;11.03;;;10.00;;
10731;SDS011;74907;42.812;23.216;2024-03-23T07:00:44;10.93;;;9.83;;
10731;SDS011;74907;42.812;23.216;2024-03-23T07:03:11;10.87;;;9.47;;
10731;SDS011;74907;42.812;23.216;2024-03-23T07:05:38;12.67;;;10.30;;
10731;SDS011;74907;42.812;23.216;2024-03-23T07:08:05;11.00;;;9.63;;
10731;SDS011;74907;42.812;23.216;2024-03-23T07:10:31;10.23;;;9.17;;
10731;SDS011;74907;42.812;23.216;2024-03-23T07:12:58;10.80;;;9.13;;
10731;SDS011;74907;42.812;23.216;2024-03-23T07:15:25;10.80;;;9.23;;
10731;SDS011;74907;42.812;23.216;2024-03-23T07:17:52;11.90;;;9.90;;
10731;SDS011;74907;42.812;23.216;2024-03-23T07:20:17;11.27;;;9.87;;
10731;SDS011;74907;42.812;23.216;2024-03-23T07:22:45;10.20;;;9.13;;
10731;SDS011;74907;42.812;23.216;2024-03-23T07:25:11;12.13;;;9.63;;
10731;SDS011;74907;42.812;23.216;2024-03-23T07:27:37;11.27;;;10.10;;
10731;SDS011;74907;42.812;23.216;2024-03-23T07:30:03;12.70;;;9.43;;
10731;SDS011;74907;42.812;23.216;2024-03-23T07:32:34;10.53;;;9.50;;
10731;SDS011;74907;42.812;23.216;2024-03-23T07:35:03;10.60;;;9.10;;
10731;SDS011;74907;42.812;23.216;2024-03-23T07:37:30;13.77;;;9.63;;
10731;SDS011;74907;42.812;23.216;2024-03-23T07:39:56;10.07;;;8.87;;
10731;SDS011;74907;42.812;23.216;2024-03-23T07:42:24;12.20;;;9.07;;
10731;SDS011;74907;42.812;23.216;2024-03-23T07:44:51;10.50;;;8.60;;
10731;SDS011;74907;42.812;23.216;2024-03-23T07:47:18;14.13;;;9.40;;
10731;SDS011;74907;42.812;23.216;2024-03-23T07:49:46;9.67;;;8.63;;
10731;SDS011;74907;42.812;23.216;2024-03-23T07:52:12;13.00;;;8.60;;
10731;SDS011;74907;42.812;23.216;2024-03-23T07:54:38;10.60;;;8.37;;
10731;SDS011;74907;42.812;23.216;2024-03-23T07:57:05;10.50;;;8.17;;
10731;SDS011;74907;42.812;23.216;2024-03-23T07:59:31;10.80;;;8.87;;
10731;SDS011;74907;42.812;23.216;2024-03-23T08:01:59;9.10;;;7.37;;
10731;SDS011;74907;42.812;23.216;2024-03-23T08:04:25;7.93;;;7.07;;
10731;SDS011;74907;42.812;23.216;2024-03-23T08:06:53;8.93;;;7.03;;
10731;SDS011;74907;42.812;23.216;2024-03-23T08:09:18;8.37;;;7.37;;
10731;SDS011;74907;42.812;23.216;2024-03-23T08:11:46;9.77;;;6.97;;
10731;SDS011;74907;42.812;23.216;2024-03-23T08:14:11;8.13;;;6.73;;
10731;SDS011;74907;42.812;23.216;2024-03-23T08:16:38;8.00;;;7.13;;
10731;SDS011;74907;42.812;23.216;2024-03-23T08:19:06;8.03;;;7.23;;
10731;SDS011;74907;42.812;23.216;2024-03-23T08:21:33;8.40;;;6.97;;
10731;SDS011;74907;42.812;23.216;2024-03-23T08:24:01;7.53;;;6.83;;
10731;SDS011;74907;42.812;23.216;2024-03-23T08:26:28;10.40;;;7.63;;
10731;SDS011;74907;42.812;23.216;2024-03-23T08:28:54;9.60;;;6.60;;
10731;SDS011;74907;42.812;23.216;2024-03-23T08:31:20;8.97;;;6.63;;
10731;SDS011;74907;42.812;23.216;2024-03-23T08:33:47;9.07;;;6.67;;
10731;SDS011;74907;42.812;23.216;2024-03-23T08:36:13;9.93;;;6.93;;
10731;SDS011;74907;42.812;23.216;2024-03-23T08:38:39;7.07;;;6.37;;
10731;SDS011;74907;42.812;23.216;2024-03-23T08:41:07;7.77;;;6.87;;
10731;SDS011;74907;42.812;23.216;2024-03-23T08:43:35;9.20;;;7.50;;
10731;SDS011;74907;42.812;23.216;2024-03-23T08:46:05;7.53;;;6.93;;
10731;SDS011;74907;42.812;23.216;2024-03-23T08:48:32;8.07;;;7.07;;
10731;SDS011;74907;42.812;23.216;2024-03-23T08:50:59;7.57;;;6.97;;
10731;SDS011;74907;42.812;23.216;2024-03-23T08:53:27;9.70;;;7.33;;
10731;SDS011;74907;42.812;23.216;2024-03-23T08:55:53;8.23;;;6.83;;
10731;SDS011;74907;42.812;23.216;2024-03-23T08:58:22;7.63;;;6.80;;
10731;SDS011;74907;42.812;23.216;2024-03-23T09:00:49;7.67;;;6.90;;
10731;SDS011;74907;42.812;23.216;2024-03-23T09:03:16;8.23;;;7.43;;
10731;SDS011;74907;42.812;23.216;2024-03-23T09:05:41;9.23;;;7.67;;
10731;SDS011;74907;42.812;23.216;2024-03-23T09:08:08;8.10;;;7.30;;
10731;SDS011;74907;42.812;23.216;2024-03-23T09:10:37;10.17;;;7.47;;
10731;SDS011;74907;42.812;23.216;2024-03-23T09:13:05;8.33;;;7.50;;
10731;SDS011;74907;42.812;23.216;2024-03-23T09:15:32;11.03;;;7.47;;
10731;SDS011;74907;42.812;23.216;2024-03-23T09:18:00;9.30;;;7.47;;
10731;SDS011;74907;42.812;23.216;2024-03-23T09:20:26;8.67;;;7.00;;
10731;SDS011;74907;42.812;23.216;2024-03-23T09:22:52;8.80;;;7.90;;
10731;SDS011;74907;42.812;23.216;2024-03-23T09:25:18;8.37;;;7.57;;
10731;SDS011;74907;42.812;23.216;2024-03-23T09:27:45;8.67;;;7.40;;
10731;SDS011;74907;42.812;23.216;2024-03-23T09:30:12;10.23;;;6.73;;
10731;SDS011;74907;42.812;23.216;2024-03-23T09:32:40;7.93;;;7.13;;
10731;SDS011;74907;42.812;23.216;2024-03-23T09:35:07;8.23;;;7.00;;
10731;SDS011;74907;42.812;23.216;2024-03-23T09:37:34;10.93;;;7.57;;
10731;SDS011;74907;42.812;23.216;2024-03-23T09:40:00;8.67;;;7.83;;
10731;SDS011;74907;42.812;23.216;2024-03-23T09:42:26;8.93;;;6.77;;
10731;SDS011;74907;42.812;23.216;2024-03-23T09:44:52;7.87;;;7.07;;
10731;SDS011;74907;42.812;23.216;2024-03-23T09:47:20;6.47;;;5.93;;
10731;SDS011;74907;42.812;23.216;2024-03-23T09:49:47;9.03;;;6.40;;
10731;SDS011;74907;42.812;23.216;2024-03-23T09:52:14;6.50;;;5.47;;
10731;SDS011;74907;42.812;23.216;2024-03-23T09:54:40;7.13;;;5.63;;
10731;SDS011;74907;42.812;23.216;2024-03-23T09:57:07;6.80;;;5.70;;
10731;SDS011;74907;42.812;23.216;2024-03-23T09:59:32;9.10;;;5.40;;
10731;SDS011;74907;42.812;23.216;2024-03-23T10:02:00;5.80;;;5.23;;
10731;SDS011;74907;42.812;23.216;2024-03-23T10:04:36;8.23;;;5.87;;
10731;SDS011;74907;42.812;23.216;2024-03-23T10:07:11;6.70;;;5.53;;
10731;SDS011;74907;42.812;23.216;2024-03-23T10:09:37;8.07;;;5.83;;
10731;SDS011;74907;42.812;23.216;2024-03-23T10:12:08;7.10;;;6.10;;
10731;SDS011;74907;42.812;23.216;2024-03-23T10:14:35;7.10;;;5.93;;
10731;SDS011;74907;42.812;23.216;2024-03-23T10:19:44;8.43;;;5.87;;
10731;SDS011;74907;42.812;23.216;2024-03-23T10:22:12;7.57;;;5.87;;
10731;SDS011;74907;42.812;23.216;2024-03-23T10:24:40;7.90;;;5.13;;
10731;SDS011;74907;42.812;23.216;2024-03-23T10:27:06;8.07;;;5.33;;
10731;SDS011;74907;42.812;23.216;2024-03-23T10:29:32;6.10;;;5.47;;
10731;SDS011;74907;42.812;23.216;2024-03-23T10:32:08;8.67;;;5.53;;
10731;SDS011;74907;42.812;23.216;2024-03-23T10:34:36;9.77;;;4.87;;
10731;SDS011;74907;42.812;23.216;2024-03-23T10:37:02;5.43;;;4.93;;
10731;SDS011;74907;42.812;23.216;2024-03-23T10:39:34;6.40;;;4.80;;
10731;SDS011;74907;42.812;23.216;2024-03-23T10:42:04;7.00;;;4.70;;
10731;SDS011;74907;42.812;23.216;2024-03-23T10:44:32;5.67;;;4.70;;
10731;SDS011;74907;42.812;23.216;2024-03-23T10:46:59;8.17;;;5.03;;
10731;SDS011;74907;42.812;23.216;2024-03-23T10:49:26;5.20;;;4.70;;
10731;SDS011;74907;42.812;23.216;2024-03-23T10:51:55;5.87;;;4.87;;
10731;SDS011;74907;42.812;23.216;2024-03-23T10:54:24;4.77;;;4.37;;
10731;SDS011;74907;42.812;23.216;2024-03-23T10:56:52;7.37;;;4.73;;
10731;SDS011;74907;42.812;23.216;2024-03-23T10:59:29;5.70;;;5.10;;
10731;SDS011;74907;42.812;23.216;2024-03-23T11:01:56;5.33;;;4.90;;
10731;SDS011;74907;42.812;23.216;2024-03-23T11:04:30;5.00;;;4.60;;
10731;SDS011;74907;42.812;23.216;2024-03-23T11:06:57;5.10;;;4.60;;
10731;SDS011;74907;42.812;23.216;2024-03-23T11:12:18;5.77;;;4.30;;
10731;SDS011;74907;42.812;23.216;2024-03-23T11:14:52;4.83;;;4.33;;
10731;SDS011;74907;42.812;23.216;2024-03-23T11:17:20;4.20;;;3.90;;
10731;SDS011;74907;42.812;23.216;2024-03-23T11:19:53;6.40;;;3.97;;
10731;SDS011;74907;42.812;23.216;2024-03-23T11:25:18;4.53;;;4.13;;
10731;SDS011;74907;42.812;23.216;2024-03-23T11:27:47;5.20;;;4.73;;
10731;SDS011;74907;42.812;23.216;2024-03-23T11:30:15;5.57;;;5.10;;
10731;SDS011;74907;42.812;23.216;2024-03-23T11:32:42;4.57;;;4.17;;
10731;SDS011;74907;42.812;23.216;2024-03-23T11:35:10;5.07;;;3.80;;
10731;SDS011;74907;42.812;23.216;2024-03-23T11:37:36;5.30;;;4.50;;
10731;SDS011;74907;42.812;23.216;2024-03-23T11:42:44;4.00;;;3.60;;
10731;SDS011;74907;42.812;23.216;2024-03-23T11:45:13;4.00;;;3.70;;
10731;SDS011;74907;42.812;23.216;2024-03-23T11:47:41;16.33;;;14.77;;
10731;SDS011;74907;42.812;23.216;2024-03-23T11:50:08;4.23;;;3.93;;
10731;SDS011;74907;42.812;23.216;2024-03-23T11:52:33;3.90;;;3.60;;
10731;SDS011;74907;42.812;23.216;2024-03-23T11:55:04;3.77;;;3.50;;
10731;SDS011;74907;42.812;23.216;2024-03-23T11:57:32;3.07;;;2.83;;
10731;SDS011;74907;42.812;23.216;2024-03-23T12:00:01;2.63;;;2.43;;
10731;SDS011;74907;42.812;23.216;2024-03-23T12:02:27;3.30;;;3.00;;
10731;SDS011;74907;42.812;23.216;2024-03-23T12:04:53;3.10;;;2.90;;
10731;SDS011;74907;42.812;23.216;2024-03-23T12:07:20;2.83;;;2.70;;
10731;SDS011;74907;42.812;23.216;2024-03-23T12:09:47;3.00;;;2.70;;
10731;SDS011;74907;42.812;23.216;2024-03-23T12:12:28;3.30;;;2.60;;
10731;SDS011;74907;42.812;23.216;2024-03-23T12:15:02;2.73;;;2.63;;
10731;SDS011;74907;42.812;23.216;2024-03-23T12:17:31;2.90;;;2.60;;
10731;SDS011;74907;42.812;23.216;2024-03-23T12:19:58;2.90;;;2.50;;
10731;SDS011;74907;42.812;23.216;2024-03-23T12:22:24;2.60;;;2.40;;
10731;SDS011;74907;42.812;23.216;2024-03-23T12:24:51;2.40;;;2.23;;
10731;SDS011;74907;42.812;23.216;2024-03-23T12:27:16;2.40;;;2.20;;
10731;SDS011;74907;42.812;23.216;2024-03-23T12:29:43;2.87;;;2.70;;
10731;SDS011;74907;42.812;23.216;2024-03-23T12:32:13;2.40;;;2.30;;
10731;SDS011;74907;42.812;23.216;2024-03-23T12:34:41;2.43;;;2.33;;
10731;SDS011;74907;42.812;23.216;2024-03-23T12:37:07;2.50;;;2.40;;
10731;SDS011;74907;42.812;23.216;2024-03-23T12:39:34;2.60;;;2.50;;
10731;SDS011;74907;42.812;23.216;2024-03-23T12:42:00;2.30;;;2.20;;
10731;SDS011;74907;42.812;23.216;2024-03-23T12:44:27;2.23;;;2.13;;
10731;SDS011;74907;42.812;23.216;2024-03-23T12:46:53;2.30;;;2.10;;
10731;SDS011;74907;42.812;23.216;2024-03-23T12:49:22;3.50;;;3.27;;
10731;SDS011;74907;42.812;23.216;2024-03-23T12:51:49;2.60;;;2.50;;
10731;SDS011;74907;42.812;23.216;2024-03-23T12:54:20;3.20;;;3.00;;
10731;SDS011;74907;42.812;23.216;2024-03-23T12:56:46;4.47;;;2.60;;
10731;SDS011;74907;42.812;23.216;2024-03-23T12:59:13;2.40;;;2.30;;
10731;SDS011;74907;42.812;23.216;2024-03-23T13:01:38;2.60;;;2.40;;
10731;SDS011;74907;42.812;23.216;2024-03-23T13:04:05;2.67;;;2.57;;
10731;SDS011;74907;42.812;23.216;2024-03-23T13:06:32;4.90;;;2.80;;
10731;SDS011;74907;42.812;23.216;2024-03-23T13:08:59;2.83;;;2.63;;
10731;SDS011;74907;42.812;23.216;2024-03-23T13:11:26;4.40;;;2.83;;
10731;SDS011;74907;42.812;23.216;2024-03-23T13:13:53;3.00;;;2.47;;
10731;SDS011;74907;42.812;23.216;2024-03-23T13:16:18;2.60;;;2.23;;
10731;SDS011;74907;42.812;23.216;2024-03-23T13:18:45;3.87;;;2.40;;
10731;SDS011;74907;42.812;23.216;2024-03-23T13:21:11;2.90;;;2.70;;
10731;SDS011;74907;42.812;23.216;2024-03-23T13:23:39;2.80;;;2.60;;
10731;SDS011;74907;42.812;23.216;2024-03-23T13:26:07;2.40;;;2.20;;
10731;SDS011;74907;42.812;23.216;2024-03-23T13:28:34;2.70;;;2.50;;
10731;SDS011;74907;42.812;23.216;2024-03-23T13:31:01;3.00;;;2.40;;
10731;SDS011;74907;42.812;23.216;2024-03-23T13:33:28;5.90;;;2.47;;
10731;SDS011;74907;42.812;23.216;2024-03-23T13:35:55;2.87;;;2.67;;
10731;SDS011;74907;42.812;23.216;2024-03-23T13:38:22;2.87;;;2.67;;
10731;SDS011;74907;42.812;23.216;2024-03-23T13:40:54;3.47;;;3.13;;
10731;SDS011;74907;42.812;23.216;2024-03-23T13:43:27;3.30;;;2.43;;
10731;SDS011;74907;42.812;23.216;2024-03-23T13:45:57;5.10;;;4.00;;
10731;SDS011;74907;42.812;23.216;2024-03-23T13:48:25;2.90;;;2.70;;
10731;SDS011;74907;42.812;23.216;2024-03-23T13:50:57;3.03;;;2.80;;
10731;SDS011;74907;42.812;23.216;2024-03-23T13:53:24;2.80;;;2.60;;
10731;SDS011;74907;42.812;23.216;2024-03-23T13:55:50;2.67;;;2.47;;
10731;SDS011;74907;42.812;23.216;2024-03-23T13:58:18;2.53;;;2.33;;
10731;SDS011;74907;42.812;23.216;2024-03-23T14:00:44;2.73;;;2.53;;
10731;SDS011;74907;42.812;23.216;2024-03-23T14:03:12;2.33;;;2.23;;
10731;SDS011;74907;42.812;23.216;2024-03-23T14:05:39;2.30;;;2.20;;
10731;SDS011;74907;42.812;23.216;2024-03-23T14:08:07;2.60;;;2.30;;
10731;SDS011;74907;42.812;23.216;2024-03-23T14:10:33;3.87;;;2.73;;
10731;SDS011;74907;42.812;23.216;2024-03-23T14:13:00;2.60;;;2.40;;
10731;SDS011;74907;42.812;23.216;2024-03-23T14:15:28;3.37;;;3.00;;
10731;SDS011;74907;42.812;23.216;2024-03-23T14:17:55;2.60;;;2.50;;
10731;SDS011;74907;42.812;23.216;2024-03-23T14:20:21;2.50;;;2.30;;
10731;SDS011;74907;42.812;23.216;2024-03-23T14:22:48;3.03;;;2.80;;
10731;SDS011;74907;42.812;23.216;2024-03-23T14:25:14;3.03;;;2.83;;
10731;SDS011;74907;42.812;23.216;2024-03-23T14:27:45;2.90;;;2.70;;
10731;SDS011;74907;42.812;23.216;2024-03-23T14:30:12;3.00;;;2.80;;
10731;SDS011;74907;42.812;23.216;2024-03-23T14:32:40;3.20;;;3.00;;
10731;SDS011;74907;42.812;23.216;2024-03-23T14:35:06;3.37;;;3.07;;
10731;SDS011;74907;42.812;23.216;2024-03-23T14:37:36;3.37;;;3.17;;
10731;SDS011;74907;42.812;23.216;2024-03-23T14:40:02;3.70;;;3.50;;
10731;SDS011;74907;42.812;23.216;2024-03-23T14:42:29;4.20;;;3.30;;
10731;SDS011;74907;42.812;23.216;2024-03-23T14:44:56;3.83;;;3.53;;
10731;SDS011;74907;42.812;23.216;2024-03-23T14:47:23;3.93;;;3.63;;
10731;SDS011;74907;42.812;23.216;2024-03-23T14:49:50;3.60;;;3.33;;
10731;SDS011;74907;42.812;23.216;2024-03-23T14:52:17;3.67;;;3.47;;
10731;SDS011;74907;42.812;23.216;2024-03-23T14:54:43;3.00;;;2.80;;
10731;SDS011;74907;42.812;23.216;2024-03-23T14:57:10;3.80;;;3.50;;
10731;SDS011;74907;42.812;23.216;2024-03-23T14:59:36;3.53;;;3.33;;
10731;SDS011;74907;42.812;23.216;2024-03-23T15:02:04;4.07;;;3.80;;
10731;SDS011;74907;42.812;23.216;2024-03-23T15:04:30;6.53;;;3.83;;
10731;SDS011;74907;42.812;23.216;2024-03-23T15:06:58;3.57;;;3.27;;
10731;SDS011;74907;42.812;23.216;2024-03-23T15:09:23;4.17;;;3.87;;
10731;SDS011;74907;42.812;23.216;2024-03-23T15:11:50;3.50;;;3.27;;
10731;SDS011;74907;42.812;23.216;2024-03-23T15:14:16;3.00;;;2.67;;
10731;SDS011;74907;42.812;23.216;2024-03-23T15:16:43;5.07;;;3.40;;
10731;SDS011;74907;42.812;23.216;2024-03-23T15:19:08;3.50;;;3.20;;
10731;SDS011;74907;42.812;23.216;2024-03-23T15:21:35;4.80;;;3.67;;
10731;SDS011;74907;42.812;23.216;2024-03-23T15:24:02;3.93;;;3.60;;
10731;SDS011;74907;42.812;23.216;2024-03-23T15:26:30;4.80;;;3.40;;
10731;SDS011;74907;42.812;23.216;2024-03-23T15:28:56;7.13;;;3.80;;
10731;SDS011;74907;42.812;23.216;2024-03-23T15:31:37;3.90;;;3.60;;